Time;durP1;ratioP1;P1;durP2;ratioP2;P2;SDS_P1;SDS_P2;PMS_P1;PMS_P2;Temp;Humidity;BMP_temperature;BMP_pressure;BME280_temperature;BME280_humidity;BME280_pressure;Samples;Min_cycle;Max_cycle;Signal;HPM_P1;HPM_P2
2022/03/29 00:01:34;;;;;;;25.57;14.23;;;;;;;4.68;81.00;98833.61;1791275;78;20961;-61
2022/03/29 00:04:01;;;;;;;21.45;14.40;;;;;;;4.66;80.73;98823.77;1787398;78;21072;-62
2022/03/29 00:06:27;;;;;;;18.93;13.57;;;;;;;4.63;80.77;98829.05;1790244;78;20947;-62
2022/03/29 00:08:55;;;;;;;22.43;14.80;;;;;;;4.64;81.17;98820.39;1789600;78;21010;-62
2022/03/29 00:11:22;;;;;;;27.15;15.53;;;;;;;4.62;80.90;98809.28;1778299;78;20931;-62
2022/03/29 00:13:49;;;;;;;28.12;15.85;;;;;;;4.63;80.85;98822.59;1784815;78;20899;-62
2022/03/29 00:16:17;;;;;;;22.17;14.13;;;;;;;4.63;80.84;98821.30;1788843;78;21376;-62
2022/03/29 00:18:44;;;;;;;33.50;15.95;;;;;;;4.61;81.09;98812.75;1793822;78;20835;-62
2022/03/29 00:21:11;;;;;;;21.27;14.05;;;;;;;4.58;80.96;98810.28;1752169;80;20970;-62
2022/03/29 00:23:38;;;;;;;21.12;15.45;;;;;;;4.56;81.16;98809.94;1763361;81;21490;-62
2022/03/29 00:26:05;;;;;;;19.77;15.77;;;;;;;4.53;81.03;98812.19;1759880;80;21498;-62
2022/03/29 00:28:32;;;;;;;21.20;14.50;;;;;;;4.53;81.32;98814.77;1759915;79;21536;-62
2022/03/29 00:30:58;;;;;;;;;;;;;;;4.49;81.31;98808.88;1767622;81;21021;-62
2022/03/29 00:33:25;;;;;;;26.48;15.32;;;;;;;4.49;81.36;98809.34;1790497;78;20255;-62
2022/03/29 00:35:52;;;;;;;29.95;18.05;;;;;;;4.46;81.33;98810.75;1784243;80;20947;-62
2022/03/29 00:38:19;;;;;;;28.95;16.82;;;;;;;4.45;81.39;98806.45;1791020;78;20939;-62
2022/03/29 00:40:46;;;;;;;26.27;16.42;;;;;;;4.46;81.52;98809.45;1789546;80;21440;-62
2022/03/29 00:43:13;;;;;;;27.02;17.05;;;;;;;4.45;81.65;98803.87;1789093;78;21084;-62
2022/03/29 00:45:39;;;;;;;23.55;15.00;;;;;;;4.42;81.77;98810.45;1789263;78;21224;-62
2022/03/29 00:48:08;;;;;;;23.77;17.00;;;;;;;4.42;81.80;98804.83;1781393;80;21004;-62
2022/03/29 00:50:38;;;;;;;27.05;16.95;;;;;;;4.42;81.78;98800.11;1775181;79;21016;-61
2022/03/29 00:53:06;;;;;;;33.05;17.17;;;;;;;4.43;81.63;98796.19;1763493;79;22291;-62
2022/03/29 00:55:34;;;;;;;30.12;16.67;;;;;;;4.42;81.65;98791.06;1761603;79;21036;-62
2022/03/29 00:58:04;;;;;;;27.30;15.43;;;;;;;4.42;81.70;98793.65;1753690;81;20989;-62
2022/03/29 01:00:33;;;;;;;30.97;15.83;;;;;;;4.40;82.02;98798.05;1761061;80;20878;-62
2022/03/29 01:03:03;;;;;;;27.93;16.30;;;;;;;4.35;81.92;98779.28;1759925;79;21626;-62
2022/03/29 01:05:29;;;;;;;20.50;14.70;;;;;;;4.27;81.94;98776.97;1752843;80;22034;-62
2022/03/29 01:08:00;;;;;;;28.98;16.35;;;;;;;4.24;82.10;98789.55;1757980;79;21139;-62
2022/03/29 01:10:28;;;;;;;24.00;14.83;;;;;;;4.19;82.10;98781.13;1757027;80;21008;-62
2022/03/29 01:12:56;;;;;;;29.55;15.45;;;;;;;4.18;82.33;98782.03;1757243;79;20950;-62
2022/03/29 01:15:27;;;;;;;29.20;15.40;;;;;;;4.16;82.36;98782.53;1759814;81;20927;-62
2022/03/29 01:17:55;;;;;;;27.60;14.83;;;;;;;4.13;82.04;98780.06;1758211;80;21077;-62
2022/03/29 01:20:27;;;;;;;24.40;14.43;;;;;;;4.12;82.40;98778.38;1754860;81;21530;-62
2022/03/29 01:22:55;;;;;;;27.75;15.05;;;;;;;4.11;82.30;98772.80;1759638;80;21005;-62
2022/03/29 01:25:26;;;;;;;25.72;16.27;;;;;;;4.08;82.37;98768.20;1761165;81;20933;-62
2022/03/29 01:27:54;;;;;;;22.77;14.45;;;;;;;4.04;82.37;98767.48;1759853;80;20974;-62
2022/03/29 01:30:21;;;;;;;25.45;15.18;;;;;;;3.99;82.99;98770.67;1759359;80;21399;-62
2022/03/29 01:32:51;;;;;;;27.30;16.15;;;;;;;3.95;82.83;98748.42;1760621;80;21579;-62
2022/03/29 01:35:22;;;;;;;24.25;15.10;;;;;;;3.92;82.62;98766.19;1762017;80;21033;-62
2022/03/29 01:37:50;;;;;;;27.07;14.98;;;;;;;3.90;82.66;98761.97;1761135;80;20996;-62
2022/03/29 01:40:19;;;;;;;28.15;14.80;;;;;;;3.88;83.03;98771.50;1758292;81;20988;-62
2022/03/29 01:42:56;;;;;;;24.20;13.50;;;;;;;3.87;82.92;98764.66;1760563;81;21077;-62
2022/03/29 01:45:26;;;;;;;24.57;14.60;;;;;;;3.87;83.45;98759.50;1756477;81;21014;-62
2022/03/29 01:47:53;;;;;;;22.42;11.48;;;;;;;3.84;83.11;98760.87;1759223;81;21506;-62
2022/03/29 01:50:21;;;;;;;24.12;14.90;;;;;;;3.85;84.08;98763.87;1758494;81;20994;-62
2022/03/29 01:52:49;;;;;;;30.48;15.28;;;;;;;3.84;83.41;98756.99;1761534;81;21035;-62
2022/03/29 01:55:18;;;;;;;30.40;16.25;;;;;;;3.84;83.83;98759.58;1761951;79;21907;-62
2022/03/29 01:57:46;;;;;;;23.25;13.98;;;;;;;3.83;83.93;98755.32;1760068;80;20993;-62
2022/03/29 02:03:05;;;;;;;;;;;;;;;3.80;83.53;98757.11;1760739;81;20990;-62
2022/03/29 02:05:33;;;;;;;28.50;14.68;;;;;;;3.81;83.96;98761.39;1757898;81;20421;-62
2022/03/29 02:08:01;;;;;;;26.35;14.53;;;;;;;3.79;83.75;98755.44;1753614;81;21114;-62
2022/03/29 02:10:29;;;;;;;29.27;14.58;;;;;;;3.78;83.59;98746.02;1760560;80;20901;-62
2022/03/29 02:12:56;;;;;;;26.52;13.35;;;;;;;3.80;83.75;98749.36;1757647;80;20894;-62
2022/03/29 02:15:23;;;;;;;24.02;12.80;;;;;;;3.79;83.62;98752.84;1757233;80;21006;-62
2022/03/29 02:17:50;;;;;;;22.52;13.43;;;;;;;3.80;83.47;98756.27;1757481;80;20984;-62
2022/03/29 02:23:09;;;;;;;31.55;15.08;;;;;;;3.78;83.41;98743.43;1735807;81;20842;-62
2022/03/29 02:25:36;;;;;;;30.12;15.40;;;;;;;3.78;83.56;98749.02;1731747;81;20988;-62
2022/03/29 02:28:03;;;;;;;;;;;;;;;3.78;83.41;98747.30;1736454;81;21461;-62
2022/03/29 02:30:32;;;;;;;31.20;14.38;;;;;;;3.79;84.17;98761.05;1709798;82;20098;-62
2022/03/29 02:33:01;;;;;;;26.12;14.03;;;;;;;3.76;83.66;98755.55;1759846;80;21114;-62
2022/03/29 02:35:28;;;;;;;32.23;15.50;;;;;;;3.73;83.58;98763.40;1736703;81;20961;-62
2022/03/29 02:37:55;;;;;;;22.20;14.57;;;;;;;3.72;83.54;98766.02;1746260;81;21474;-62
2022/03/29 02:40:22;;;;;;;26.40;14.95;;;;;;;3.70;83.80;98766.09;1736261;81;21004;-63
2022/03/29 02:42:52;;;;;;;26.40;12.78;;;;;;;3.67;83.61;98763.62;1759259;80;20962;-62
2022/03/29 02:45:24;;;;;;;23.65;13.50;;;;;;;3.66;83.55;98759.33;1742106;81;21001;-62
2022/03/29 02:47:57;;;;;;;26.23;14.60;;;;;;;3.65;83.57;98765.40;1759995;81;21282;-62
2022/03/29 02:50:24;;;;;;;26.42;13.60;;;;;;;3.61;83.80;98768.96;1762361;80;21061;-62
2022/03/29 02:52:53;;;;;;;;;;;;;;;3.60;83.89;98769.88;1767736;80;21068;-62
2022/03/29 02:55:24;;;;;;;30.17;13.95;;;;;;;3.57;83.71;98768.69;1757607;81;20168;-62
2022/03/29 02:57:51;;;;;;;28.05;15.43;;;;;;;3.55;83.83;98773.05;1734165;81;21582;-62
2022/03/29 03:00:23;;;;;;;27.60;13.73;;;;;;;3.54;83.70;98767.50;1760648;80;21542;-62
2022/03/29 03:03:10;;;;;;;27.62;12.95;;;;;;;3.55;83.77;98756.27;1861459;76;22656;-61
2022/03/29 03:05:36;;;;;;;27.60;13.10;;;;;;;3.48;83.71;98757.39;1839746;77;20851;-61
2022/03/29 03:08:07;;;;;;;30.75;13.75;;;;;;;3.46;83.70;98759.17;1827036;77;21135;-61
2022/03/29 03:10:33;;;;;;;23.85;13.60;;;;;;;3.44;83.66;98763.09;1831681;77;21091;-61
2022/03/29 03:13:00;;;;;;;25.57;12.80;;;;;;;3.46;83.70;98761.75;1830929;77;20981;-61
2022/03/29 03:15:27;;;;;;;25.77;12.18;;;;;;;3.42;83.82;98764.03;1832241;77;21660;-61
2022/03/29 03:17:55;;;;;;;31.67;12.63;;;;;;;3.40;83.85;98764.55;1831254;77;21022;-62
2022/03/29 03:20:23;;;;;;;25.62;11.93;;;;;;;3.37;83.95;98765.49;1832643;77;21078;-61
2022/03/29 03:22:51;;;;;;;21.40;10.98;;;;;;;3.33;84.18;98762.17;1834445;77;20997;-61
2022/03/29 03:25:18;;;;;;;22.27;12.47;;;;;;;3.32;83.97;98760.92;1831868;77;21578;-62
2022/03/29 03:27:45;;;;;;;22.07;12.10;;;;;;;3.30;83.96;98757.09;1830564;77;20930;-61
2022/03/29 03:30:16;;;;;;;18.35;10.95;;;;;;;3.29;83.93;98769.61;1828863;77;21006;-61
2022/03/29 03:32:43;;;;;;;23.02;11.78;;;;;;;3.29;83.89;98774.77;1831731;77;21076;-63
2022/03/29 03:35:12;;;;;;;28.67;13.08;;;;;;;3.27;83.79;98777.83;1829541;76;20933;-62
2022/03/29 03:37:39;;;;;;;23.47;12.88;;;;;;;3.26;83.74;98771.00;1834023;77;20969;-63
2022/03/29 03:40:09;;;;;;;31.40;12.28;;;;;;;3.26;83.70;98774.87;1830914;77;20894;-62
2022/03/29 03:42:37;;;;;;;27.30;12.33;;;;;;;3.25;83.66;98774.48;1830157;77;20967;-62
2022/03/29 03:45:07;;;;;;;28.47;11.90;;;;;;;3.23;83.64;98773.69;1826055;77;21559;-62
2022/03/29 03:47:34;;;;;;;16.85;11.12;;;;;;;3.19;83.72;98779.81;1778205;79;20988;-61
2022/03/29 03:50:02;;;;;;;26.97;11.78;;;;;;;3.16;83.72;98782.50;1780831;79;21008;-62
2022/03/29 03:52:28;;;;;;;;;;;;;;;3.09;83.61;98781.02;1783858;79;21096;-61
2022/03/29 03:54:56;;;;;;;24.17;11.67;;;;;;;3.02;83.83;98779.52;1782950;78;20117;-62
2022/03/29 03:57:23;;;;;;;27.65;11.73;;;;;;;2.93;83.73;98779.81;1774474;79;22132;-62
2022/03/29 04:00:45;;;;;;;21.85;11.57;;;;;;;2.87;83.73;98788.59;1868197;75;22683;-61
2022/03/29 04:03:12;;;;;;;33.35;12.45;;;;;;;2.77;83.79;98790.59;1838184;76;20955;-61
2022/03/29 04:05:39;;;;;;;31.70;13.83;;;;;;;2.73;83.81;98790.75;1843671;77;21215;-61
2022/03/29 04:08:06;;;;;;;21.47;11.53;;;;;;;2.67;83.76;98793.06;1844866;76;21764;-61
2022/03/29 04:10:33;;;;;;;30.90;12.33;;;;;;;2.64;83.87;98794.45;1836575;76;21528;-61
2022/03/29 04:13:02;;;;;;;26.85;11.40;;;;;;;2.60;83.79;98794.13;1842180;77;20932;-61
2022/03/29 04:15:29;;;;;;;25.95;11.60;;;;;;;2.57;83.89;98791.64;1839120;77;21856;-62
2022/03/29 04:17:56;;;;;;;23.63;11.50;;;;;;;2.54;83.90;98790.45;1833873;77;21067;-62
2022/03/29 04:20:22;;;;;;;28.02;12.53;;;;;;;2.48;83.89;98784.19;1846050;77;21456;-62
2022/03/29 04:22:49;;;;;;;31.60;12.80;;;;;;;2.46;83.85;98788.09;1843335;77;21032;-62
2022/03/29 04:25:16;;;;;;;22.98;11.43;;;;;;;2.41;83.87;98784.38;1846037;77;21476;-62
2022/03/29 04:27:42;;;;;;;28.43;13.63;;;;;;;2.35;83.84;98777.25;1840536;77;20978;-62
2022/03/29 04:30:11;;;;;;;27.48;12.63;;;;;;;2.29;83.90;98786.45;1840530;75;21176;-62
2022/03/29 04:32:38;;;;;;;24.07;11.30;;;;;;;2.23;83.87;98791.33;1840666;77;20988;-62
2022/03/29 04:35:07;;;;;;;32.42;14.20;;;;;;;2.17;83.85;98783.78;1841756;75;20946;-62
2022/03/29 04:37:33;;;;;;;23.52;11.95;;;;;;;2.09;83.89;98787.02;1842830;77;21083;-62
2022/03/29 04:40:05;;;;;;;26.10;12.73;;;;;;;2.06;83.88;98790.96;1836823;76;21511;-62
2022/03/29 04:42:30;;;;;;;23.75;11.57;;;;;;;2.01;83.93;98789.34;1839562;77;22527;-62
2022/03/29 04:44:57;;;;;;;24.85;12.90;;;;;;;2.00;83.96;98791.98;1840164;77;22370;-61
2022/03/29 04:47:26;;;;;;;32.93;12.20;;;;;;;1.98;83.87;98794.58;1844459;75;21441;-62
2022/03/29 04:49:53;;;;;;;18.48;10.70;;;;;;;1.95;83.84;98792.09;1851579;75;20965;-62
2022/03/29 04:52:22;;;;;;;24.17;12.53;;;;;;;1.95;83.81;98793.83;1843334;77;21590;-62
2022/03/29 04:54:49;;;;;;;40.48;12.30;;;;;;;1.96;83.93;98793.80;1842191;76;21127;-62
2022/03/29 04:57:16;;;;;;;30.67;11.40;;;;;;;2.00;83.95;98788.95;1843134;77;21034;-62
2022/03/29 04:59:43;;;;;;;24.37;11.85;;;;;;;2.06;83.91;98792.25;1824366;77;21703;-62
2022/03/29 05:02:10;;;;;;;25.50;12.80;;;;;;;2.13;83.89;98788.60;1806925;77;21061;-62
2022/03/29 05:04:37;;;;;;;20.88;11.03;;;;;;;2.22;83.95;98799.95;1800930;78;21014;-61
2022/03/29 05:07:04;;;;;;;30.25;12.28;;;;;;;2.35;83.90;98807.75;1805346;77;21486;-61
2022/03/29 05:09:31;;;;;;;26.25;11.35;;;;;;;2.50;83.94;98801.75;1798967;78;21458;-62
2022/03/29 05:11:59;;;;;;;29.07;11.95;;;;;;;2.69;83.98;98803.73;1798976;77;21505;-62
2022/03/29 05:14:26;;;;;;;39.98;11.53;;;;;;;2.83;83.84;98798.16;1799877;78;20982;-62
2022/03/29 05:16:53;;;;;;;23.45;12.05;;;;;;;3.02;83.79;98794.99;1798264;77;21473;-61
2022/03/29 05:19:20;;;;;;;27.55;11.18;;;;;;;3.20;83.75;98798.30;1806359;77;22308;-62
2022/03/29 05:21:47;;;;;;;27.67;12.78;;;;;;;3.50;83.87;98791.71;1803809;77;21466;-62
2022/03/29 05:24:13;;;;;;;27.50;12.40;;;;;;;3.87;83.82;98802.11;1795825;77;21042;-63
2022/03/29 05:26:40;;;;;;;28.70;12.53;;;;;;;4.23;83.66;98802.09;1807524;77;20941;-62
2022/03/29 05:29:09;;;;;;;27.17;12.13;;;;;;;4.44;83.02;98789.27;1800839;78;20928;-62
2022/03/29 05:31:35;;;;;;;22.80;10.88;;;;;;;4.82;83.37;98805.94;1798563;77;20935;-64
2022/03/29 05:34:02;;;;;;;19.93;11.20;;;;;;;5.12;82.80;98801.28;1800421;77;21465;-67
2022/03/29 05:36:29;;;;;;;21.17;10.43;;;;;;;5.22;81.96;98798.34;1809968;77;21050;-63
2022/03/29 05:38:56;;;;;;;23.27;10.60;;;;;;;5.44;82.14;98806.93;1801422;78;21529;-65
2022/03/29 05:41:23;;;;;;;20.88;10.58;;;;;;;5.60;81.79;98802.80;1792506;77;21567;-63
2022/03/29 05:43:51;;;;;;;24.43;13.40;;;;;;;5.82;81.39;98805.77;1801696;77;21749;-63
2022/03/29 05:49:05;;;;;;;25.08;12.53;;;;;;;6.24;80.87;98800.96;1799706;79;21536;-62
2022/03/29 05:51:32;;;;;;;24.63;11.05;;;;;;;6.36;80.95;98805.63;1808083;77;20940;-61
2022/03/29 05:54:04;;;;;;;18.25;10.08;;;;;;;6.52;80.94;98807.51;1803634;78;20939;-62
2022/03/29 05:56:31;;;;;;;16.73;9.20;;;;;;;6.68;80.64;98803.31;1799954;78;21061;-62
2022/03/29 05:58:58;;;;;;;24.67;10.30;;;;;;;6.78;80.38;98799.39;1801804;77;21104;-63
2022/03/29 06:01:25;;;;;;;17.70;9.53;;;;;;;6.84;80.26;98810.77;1830842;77;20975;-65
2022/03/29 06:03:52;;;;;;;16.77;9.35;;;;;;;7.14;81.11;98807.20;1829585;77;21102;-62
2022/03/29 06:06:21;;;;;;;17.15;7.92;;;;;;;7.58;81.29;98811.13;1835460;77;21077;-62
2022/03/29 06:08:50;;;;;;;12.82;7.62;;;;;;;7.98;80.37;98816.48;1840414;77;21069;-63
2022/03/29 06:11:17;;;;;;;18.10;8.93;;;;;;;8.23;80.19;98814.76;1842938;76;20959;-62
2022/03/29 06:13:44;;;;;;;19.17;7.80;;;;;;;8.59;80.26;98812.44;1837350;76;21029;-63
2022/03/29 06:16:11;;;;;;;14.20;8.00;;;;;;;9.12;80.49;98808.66;1835260;76;21011;-62
2022/03/29 06:18:39;;;;;;;17.60;8.05;;;;;;;9.49;80.52;98811.79;1830626;76;20955;-63
2022/03/29 06:21:06;;;;;;;24.35;8.10;;;;;;;9.76;80.26;98817.66;1834613;76;21950;-63
2022/03/29 06:23:34;;;;;;;17.07;8.48;;;;;;;10.02;80.29;98816.95;1833080;76;20928;-62
2022/03/29 06:26:01;;;;;;;33.67;9.08;;;;;;;10.24;79.70;98815.20;1825092;77;21054;-62
2022/03/29 06:28:31;;;;;;;13.65;7.60;;;;;;;10.30;78.50;98820.55;1836731;76;21023;-63
2022/03/29 06:30:57;;;;;;;16.90;7.83;;;;;;;10.21;78.72;98815.86;1838599;76;21523;-62
2022/03/29 06:33:26;;;;;;;12.28;7.05;;;;;;;10.32;79.08;98821.30;1767238;79;21159;-62
2022/03/29 06:35:53;;;;;;;18.73;7.53;;;;;;;10.46;78.66;98823.91;1766894;79;21045;-62
2022/03/29 06:38:21;;;;;;;15.30;8.40;;;;;;;10.36;78.08;98814.95;1795065;79;20982;-63
2022/03/29 06:40:49;;;;;;;16.67;7.28;;;;;;;10.40;78.71;98819.54;1778465;79;21020;-64
2022/03/29 06:43:16;;;;;;;22.35;8.90;;;;;;;10.48;78.43;98816.83;1811809;77;21016;-64
2022/03/29 06:45:42;;;;;;;24.82;10.28;;;;;;;10.39;77.29;98818.70;1792606;79;21055;-64
2022/03/29 06:48:10;;;;;;;21.48;8.10;;;;;;;10.25;77.49;98827.77;1791964;79;21574;-64
2022/03/29 06:50:36;;;;;;;35.63;8.90;;;;;;;10.25;77.58;98822.11;1790956;79;21263;-64
2022/03/29 06:53:04;;;;;;;26.97;7.62;;;;;;;10.23;76.95;98829.66;1789295;79;21052;-64
2022/03/29 06:55:32;;;;;;;22.30;6.60;;;;;;;10.13;77.36;98829.83;1788548;79;20958;-64
2022/03/29 06:57:59;;;;;;;19.30;6.33;;;;;;;10.01;76.43;98834.84;1789873;79;21269;-64
2022/03/29 07:00:26;;;;;;;30.45;8.33;;;;;;;9.83;76.50;98842.42;1792287;77;20945;-67
2022/03/29 07:02:53;;;;;;;25.75;7.12;;;;;;;9.86;76.71;98844.88;1795790;78;21270;-63
2022/03/29 07:05:24;;;;;;;12.70;6.30;;;;;;;10.04;76.70;98842.95;1779791;79;20970;-63
2022/03/29 07:07:58;;;;;;;28.02;7.60;;;;;;;10.18;76.51;98847.35;1780840;80;21931;-62
2022/03/29 07:13:41;;;;;;;11.57;5.67;;;;;;;10.26;76.21;98839.91;1720254;82;21550;-62
2022/03/29 07:16:09;;;;;;;15.28;5.10;;;;;;;10.33;75.36;98838.62;1724672;82;21043;-63
2022/03/29 07:18:39;;;;;;;14.93;5.15;;;;;;;10.35;75.56;98841.16;1737626;80;22290;-68
2022/03/29 07:21:10;;;;;;;10.72;4.90;;;;;;;10.24;73.84;98839.16;1717695;82;20999;-64
2022/03/29 07:23:38;;;;;;;8.83;4.92;;;;;;;9.62;73.33;98840.14;1708860;82;21153;-63
2022/03/29 07:26:05;;;;;;;4.92;2.45;;;;;;;9.36;72.92;98841.63;1707713;82;21019;-64
2022/03/29 07:28:32;;;;;;;9.23;2.55;;;;;;;8.43;68.14;98849.30;1731334;82;21013;-63
2022/03/29 07:30:59;;;;;;;31.42;4.83;;;;;;;7.65;69.64;98847.59;1728264;82;22551;-63
2022/03/29 07:33:25;;;;;;;40.07;4.87;;;;;;;7.34;71.65;98855.58;1727367;82;21056;-63
2022/03/29 07:35:52;;;;;;;42.15;5.22;;;;;;;7.24;71.97;98853.02;1723935;82;21138;-63
2022/03/29 07:38:20;;;;;;;26.85;4.03;;;;;;;7.38;72.73;98851.06;1741847;80;21072;-63
2022/03/29 07:40:47;;;;;;;25.15;4.33;;;;;;;7.51;72.24;98848.73;1717027;82;21058;-63
2022/03/29 07:43:14;;;;;;;4.35;2.45;;;;;;;7.51;72.24;98848.73;1712836;82;21015;-63
2022/03/29 07:45:41;;;;;;;7.33;2.35;;;;;;;7.34;69.31;98850.37;1681477;83;21065;-63
2022/03/29 07:48:09;;;;;;;13.95;4.00;;;;;;;6.90;68.05;98857.20;1671075;83;21960;-63
2022/03/29 07:50:35;;;;;;;;;;;;;;;6.79;70.10;98860.73;1679025;83;21099;-63
2022/03/29 07:53:05;;;;;;;6.78;2.12;;;;;;;6.78;69.21;98853.88;1674965;83;20155;-64
2022/03/29 07:55:35;;;;;;;6.47;2.80;;;;;;;6.69;69.74;98859.45;1710952;82;21057;-63
2022/03/29 07:58:02;;;;;;;19.65;2.87;;;;;;;6.69;68.56;98862.05;1703817;82;21010;-63
2022/03/29 08:00:41;;;;;;;5.28;2.15;;;;;;;6.87;70.48;98857.80;1714439;81;21074;-63
2022/03/29 08:03:11;;;;;;;4.08;2.02;;;;;;;7.13;68.84;98848.80;1718018;83;21081;-62
2022/03/29 08:05:41;;;;;;;3.95;2.12;;;;;;;7.01;66.43;98851.51;1718233;83;20991;-63
2022/03/29 08:08:13;;;;;;;9.73;2.52;;;;;;;6.81;66.80;98852.44;1677139;83;20977;-62
2022/03/29 08:11:43;;;;;;;15.20;2.67;;;;;;;7.15;68.22;98850.41;1764354;79;22686;-62
2022/03/29 08:14:12;;;;;;;44.77;5.63;;;;;;;7.31;68.95;98855.72;1739247;80;20976;-61
2022/03/29 08:16:40;;;;;;;6.90;2.75;;;;;;;7.42;68.77;98849.16;1738468;80;22036;-61
2022/03/29 08:19:07;;;;;;;7.97;2.87;;;;;;;7.67;69.29;98849.63;1738766;80;21003;-62
2022/03/29 08:21:49;;;;;;;16.20;2.65;;;;;;;7.98;67.53;98848.97;1739432;80;21059;-62
2022/03/29 08:24:23;;;;;;;11.43;3.47;;;;;;;7.77;65.33;98845.67;1734604;80;21004;-62
2022/03/29 08:26:52;;;;;;;5.83;2.25;;;;;;;7.57;66.92;98845.83;1738128;80;20959;-62
2022/03/29 08:29:21;;;;;;;9.50;3.10;;;;;;;7.73;66.86;98850.66;1735234;80;21073;-62
2022/03/29 08:31:52;;;;;;;8.95;4.30;;;;;;;7.63;66.64;98848.12;1747290;80;21018;-63
2022/03/29 08:34:19;;;;;;;10.40;3.35;;;;;;;7.77;67.28;98850.04;1732934;80;21500;-64
2022/03/29 08:36:49;;;;;;;5.17;2.77;;;;;;;7.97;66.59;98836.04;1736255;80;21014;-63
2022/03/29 08:39:16;;;;;;;6.03;1.80;;;;;;;7.79;64.48;98847.75;1732465;80;21002;-64
2022/03/29 08:41:48;;;;;;;11.28;2.45;;;;;;;7.44;60.18;98855.13;1732797;82;21142;-65
2022/03/29 08:44:15;;;;;;;4.70;1.90;;;;;;;7.22;63.47;98839.72;1737413;81;21054;-64
2022/03/29 08:46:46;;;;;;;7.97;2.77;;;;;;;7.32;63.52;98848.77;1734648;80;20982;-64
2022/03/29 08:49:11;;;;;;;8.98;2.30;;;;;;;7.31;62.94;98857.02;1733169;80;21080;-65
2022/03/29 08:51:40;;;;;;;3.47;2.17;;;;;;;7.58;64.75;98853.53;1742214;81;20949;-64
2022/03/29 08:54:07;;;;;;;6.80;2.72;;;;;;;7.74;61.86;98853.62;1710847;81;21085;-64
2022/03/29 08:56:35;;;;;;;6.83;2.37;;;;;;;7.62;60.83;98850.34;1741409;80;21022;-65
2022/03/29 08:59:02;;;;;;;5.15;2.62;;;;;;;7.55;61.90;98842.45;1740231;80;21086;-68
2022/03/29 09:01:29;;;;;;;36.90;4.57;;;;;;;7.99;63.83;98843.31;1744227;80;20961;-63
2022/03/29 09:04:15;;;;;;;6.33;2.00;;;;;;;7.99;63.83;98843.31;1742613;81;21393;-63
2022/03/29 09:06:58;;;;;;;3.70;2.40;;;;;;;8.13;61.56;98854.31;1743120;80;21054;-63
2022/03/29 09:09:38;;;;;;;4.22;1.82;;;;;;;7.88;60.57;98846.91;1739076;80;21633;-63
2022/03/29 09:12:16;;;;;;;8.60;3.42;;;;;;;7.63;61.09;98843.76;1745786;81;21002;-64
2022/03/29 09:15:02;;;;;;;7.75;3.27;;;;;;;7.67;61.51;98849.63;1740195;80;21552;-63
2022/03/29 09:17:38;;;;;;;7.83;2.93;;;;;;;7.57;61.34;98845.83;1742542;81;20974;-64
2022/03/29 09:20:12;;;;;;;6.78;2.17;;;;;;;7.52;60.57;98847.80;1744597;80;21417;-64
2022/03/29 09:22:52;;;;;;;5.08;2.67;;;;;;;7.55;61.88;98842.45;1742241;81;21002;-64
2022/03/29 09:25:26;;;;;;;4.70;2.40;;;;;;;7.69;61.17;98846.97;1745022;81;21069;-63
2022/03/29 09:28:15;;;;;;;6.83;2.77;;;;;;;7.54;60.34;98840.78;1736139;82;21074;-63
2022/03/29 09:30:52;;;;;;;5.92;3.05;;;;;;;7.54;61.10;98840.78;1742222;80;21026;-63
2022/03/29 09:33:34;;;;;;;7.20;3.10;;;;;;;7.53;60.08;98844.28;1741312;82;21075;-63
2022/03/29 09:36:07;;;;;;;6.15;2.27;;;;;;;7.81;61.15;98844.63;1740154;81;20963;-62
2022/03/29 09:38:39;;;;;;;6.85;2.52;;;;;;;7.90;57.81;98842.45;1744861;81;20955;-63
2022/03/29 09:41:26;;;;;;;7.08;2.62;;;;;;;7.75;59.23;98837.11;1741994;80;20941;-63
2022/03/29 09:44:10;;;;;;;7.25;2.40;;;;;;;7.99;59.11;98842.01;1740397;80;21022;-63
2022/03/29 09:47:04;;;;;;;3.95;1.70;;;;;;;8.11;58.97;98837.47;1739137;80;22269;-63
2022/03/29 09:49:52;;;;;;;9.25;2.00;;;;;;;7.96;58.39;98833.07;1741004;82;21022;-63
2022/03/29 09:52:26;;;;;;;7.53;2.17;;;;;;;7.97;57.79;98830.84;1740751;80;21049;-63
2022/03/29 09:55:12;;;;;;;5.75;1.82;;;;;;;8.29;59.83;98824.83;1737749;80;20911;-63
2022/03/29 09:57:42;;;;;;;3.87;1.87;;;;;;;8.66;59.15;98824.21;1742189;81;21068;-64
2022/03/29 10:00:14;;;;;;;4.20;1.70;;;;;;;8.59;58.64;98817.64;1741558;80;21020;-62
2022/03/29 10:02:44;;;;;;;4.47;2.40;;;;;;;8.59;58.64;98817.64;1741432;80;20982;-63
2022/03/29 10:05:13;;;;;;;4.58;2.40;;;;;;;8.65;57.23;98821.21;1738576;80;21023;-62
2022/03/29 10:07:47;;;;;;;5.10;2.77;;;;;;;8.52;58.61;98820.21;1744513;80;21507;-61
2022/03/29 10:10:14;;;;;;;6.33;2.50;;;;;;;8.90;58.95;98806.88;1723966;81;21043;-63
2022/03/29 10:12:41;;;;;;;4.67;2.15;;;;;;;8.90;58.95;98806.88;1706775;82;21488;-63
2022/03/29 10:15:09;;;;;;;4.50;1.98;;;;;;;9.00;58.42;98819.77;1708645;82;21060;-62
2022/03/29 10:17:39;;;;;;;3.95;1.92;;;;;;;8.78;55.81;98816.20;1651540;84;21008;-62
2022/03/29 10:20:09;;;;;;;6.95;2.80;;;;;;;8.43;56.96;98799.43;1679521;83;20989;-62
2022/03/29 10:22:36;;;;;;;4.33;2.12;;;;;;;8.62;57.35;98814.04;1683606;84;21078;-63
2022/03/29 10:25:04;;;;;;;5.75;2.10;;;;;;;8.46;55.69;98812.73;1676519;83;22320;-62
2022/03/29 10:27:31;;;;;;;6.47;2.08;;;;;;;8.22;55.77;98824.75;1674475;83;20981;-63
2022/03/29 10:29:58;;;;;;;5.87;2.33;;;;;;;8.06;55.06;98814.30;1681644;83;21381;-63
2022/03/29 10:32:31;;;;;;;4.20;2.00;;;;;;;8.05;55.86;98820.89;1680438;84;21005;-64
2022/03/29 10:35:06;;;;;;;4.25;1.90;;;;;;;8.10;55.91;98817.61;1673649;84;20994;-63
2022/03/29 10:37:54;;;;;;;12.47;2.30;;;;;;;8.20;56.43;98815.35;1683760;83;22296;-63
2022/03/29 10:40:39;;;;;;;9.60;2.47;;;;;;;8.37;56.70;98811.87;1676225;84;21049;-63
2022/03/29 10:43:30;;;;;;;4.33;2.35;;;;;;;8.80;57.12;98809.63;1679751;84;20989;-63
2022/03/29 10:45:58;;;;;;;8.80;3.00;;;;;;;8.83;53.67;98800.34;1646102;85;21653;-62
2022/03/29 10:48:25;;;;;;;4.30;2.20;;;;;;;8.66;55.45;98809.06;1679268;84;21053;-62
2022/03/29 10:50:57;;;;;;;7.72;2.42;;;;;;;8.64;55.38;98805.23;1676168;84;21478;-62
2022/03/29 10:53:32;;;;;;;7.92;3.12;;;;;;;8.83;56.45;98797.73;1672700;85;21053;-63
2022/03/29 10:56:19;;;;;;;34.48;4.58;;;;;;;9.09;56.63;98797.12;1681403;84;21013;-63
2022/03/29 10:59:06;;;;;;;5.20;2.58;;;;;;;9.34;56.03;98790.53;1680716;84;21012;-63
2022/03/29 11:01:35;;;;;;;6.65;2.17;;;;;;;9.52;56.09;98786.89;1675934;84;21593;-63
2022/03/29 11:04:08;;;;;;;9.03;2.85;;;;;;;9.70;56.03;98791.95;1680682;84;21204;-63
2022/03/29 11:06:36;;;;;;;14.87;3.47;;;;;;;9.95;56.12;98786.97;1676997;84;21016;-64
2022/03/29 11:09:18;;;;;;;3.87;2.02;;;;;;;9.80;54.79;98780.03;1674141;84;20955;-64
2022/03/29 11:11:48;;;;;;;36.88;4.65;;;;;;;9.62;51.58;98785.41;1689767;81;21406;-63
2022/03/29 11:14:33;;;;;;;8.18;2.47;;;;;;;9.18;53.43;98786.17;1700093;83;21061;-63
2022/03/29 11:17:16;;;;;;;3.05;1.90;;;;;;;8.88;52.48;98785.31;1697168;81;21830;-63
2022/03/29 11:19:48;;;;;;;12.73;2.77;;;;;;;8.83;53.36;98775.61;1696747;81;21540;-63
2022/03/29 11:22:36;;;;;;;7.05;2.22;;;;;;;8.70;53.67;98763.25;1701384;83;20954;-63
2022/03/29 11:25:12;;;;;;;7.92;1.67;;;;;;;8.85;53.39;98773.73;1701575;82;21663;-63
2022/03/29 11:27:39;;;;;;;7.72;1.95;;;;;;;8.84;53.37;98771.61;1705416;84;21034;-62
2022/03/29 11:30:09;;;;;;;5.00;1.60;;;;;;;8.79;52.88;98763.67;1700466;83;21934;-63
2022/03/29 11:32:42;;;;;;;3.27;1.60;;;;;;;8.79;52.88;98763.67;1703444;82;21045;-63
2022/03/29 11:35:15;;;;;;;9.93;2.42;;;;;;;8.69;51.96;98770.70;1702238;82;20974;-64
2022/03/29 11:37:49;;;;;;;17.45;2.35;;;;;;;8.55;52.38;98761.50;1702083;84;20973;-64
2022/03/29 11:40:18;;;;;;;3.47;1.70;;;;;;;8.71;52.54;98753.68;1698757;83;21515;-63
2022/03/29 11:42:53;;;;;;;3.60;1.90;;;;;;;8.55;48.38;98744.59;1700822;82;22036;-63
2022/03/29 11:45:26;;;;;;;3.58;1.20;;;;;;;8.33;49.51;98731.04;1704840;82;21042;-63
2022/03/29 11:48:02;;;;;;;6.30;1.15;;;;;;;8.33;49.51;98731.04;1699848;84;21084;-63
2022/03/29 11:50:36;;;;;;;5.22;1.30;;;;;;;8.35;49.98;98744.81;1702838;84;21002;-63
2022/03/29 11:53:16;;;;;;;2.22;1.10;;;;;;;8.53;50.56;98738.63;1700880;82;21045;-65
2022/03/29 11:55:56;;;;;;;4.12;1.32;;;;;;;8.74;49.18;98737.45;1701515;82;22389;-65
2022/03/29 11:58:27;;;;;;;4.58;1.62;;;;;;;8.62;46.80;98742.02;1701165;83;21088;-63
2022/03/29 12:01:13;;;;;;;9.48;2.50;;;;;;;8.56;48.38;98728.05;1702916;82;21013;-63